Pagrindinis puslapis
METAR-TAF:

METAR-TAF

Oro uostai :

Riberalta, Bolivija

platuma: 11-00S, ilguma: 066-07W, Aukštis: 141 m

Dabartinis oras

Ataskaita buvo paskelbta 3 valandos ir 50 minutes, ne 23:00 UTC
Ramus vėjas
Temperatūra 28°C
Drėgmė 74%
Slėgis 1013 hPa
Matomumas 10 km arba daugiau
Mažai debesys ne aukštis 1500 ft
Išsisklaidę debesys ne aukštis 20000 ft

METAR: SLRI 162300Z 00000KT 9999 FEW015 SCT200 28/23 Q1013

Laikas: 22:50 (02:50 UTC)


TAF: trūkstamas

Orai ataskaitas ir orų prognozės (METAR, TAF).

turimą stotys yra geltonos ir raudonos taškus žemėlapyje.

Perkelti pele per norėdami pamatyti stoties vardą.

Tada spustelėkite, norėdami matyti oro stebėjimo ir prognozės.

Norėdami pakeisti žemėlapį: spustelėkite ant žalios mygtukų su juodo kryžiaus žemyn,; žalią mygtuką su brūkšneliu, jei norite nutolinti; arba žalių rodyklių gretimoms žemėlapius.


METAR-TAF: